sensor_id;sensor_type;location;lat;lon;timestamp;pressure;altitude;pressure_sealevel;temperature;humidity
21877;BME280;11103;43.788;23.710;2023-04-08T00:00:32;-14922.56;;;-144.67;100.00
21877;BME280;11103;43.788;23.710;2023-04-08T00:02:58;-14922.56;;;-144.67;100.00
21877;BME280;11103;43.788;23.710;2023-04-08T00:05:23;-14922.56;;;-144.67;100.00
21877;BME280;11103;43.788;23.710;2023-04-08T00:07:49;-14922.56;;;-144.67;100.00
21877;BME280;11103;43.788;23.710;2023-04-08T00:10:14;-14922.56;;;-144.67;100.00
21877;BME280;11103;43.788;23.710;2023-04-08T00:12:40;-14922.56;;;-144.67;100.00
21877;BME280;11103;43.788;23.710;2023-04-08T00:15:06;-14922.56;;;-144.67;100.00
21877;BME280;11103;43.788;23.710;2023-04-08T00:17:31;-14922.56;;;-144.67;100.00
21877;BME280;11103;43.788;23.710;2023-04-08T00:19:57;-14922.56;;;-144.67;100.00
21877;BME280;11103;43.788;23.710;2023-04-08T00:22:23;-14922.56;;;-144.67;100.00
21877;BME280;11103;43.788;23.710;2023-04-08T00:24:48;-14922.56;;;-144.67;100.00
21877;BME280;11103;43.788;23.710;2023-04-08T00:27:13;-14922.56;;;-144.67;100.00
21877;BME280;11103;43.788;23.710;2023-04-08T00:29:39;-14922.56;;;-144.67;100.00
21877;BME280;11103;43.788;23.710;2023-04-08T00:32:05;-14922.56;;;-144.67;100.00
21877;BME280;11103;43.788;23.710;2023-04-08T00:34:31;-14922.56;;;-144.67;100.00
21877;BME280;11103;43.788;23.710;2023-04-08T00:36:56;-14922.56;;;-144.67;100.00
21877;BME280;11103;43.788;23.710;2023-04-08T00:39:22;-14922.56;;;-144.67;100.00
21877;BME280;11103;43.788;23.710;2023-04-08T00:41:47;-14922.56;;;-144.67;100.00
21877;BME280;11103;43.788;23.710;2023-04-08T00:44:13;-14922.56;;;-144.67;100.00
21877;BME280;11103;43.788;23.710;2023-04-08T00:46:39;-14922.56;;;-144.67;100.00
21877;BME280;11103;43.788;23.710;2023-04-08T00:49:05;-14922.56;;;-144.67;100.00
21877;BME280;11103;43.788;23.710;2023-04-08T00:51:32;-14922.56;;;-144.67;100.00
21877;BME280;11103;43.788;23.710;2023-04-08T00:53:58;-14922.56;;;-144.67;100.00
21877;BME280;11103;43.788;23.710;2023-04-08T00:56:25;-14922.56;;;-144.67;100.00
21877;BME280;11103;43.788;23.710;2023-04-08T00:58:51;-14922.56;;;-144.67;100.00
21877;BME280;11103;43.788;23.710;2023-04-08T01:01:41;-14922.56;;;-144.67;100.00
21877;BME280;11103;43.788;23.710;2023-04-08T01:04:28;-14922.56;;;-144.67;100.00
21877;BME280;11103;43.788;23.710;2023-04-08T01:07:02;-14922.56;;;-144.67;100.00
21877;BME280;11103;43.788;23.710;2023-04-08T01:09:32;-14922.56;;;-144.67;100.00
21877;BME280;11103;43.788;23.710;2023-04-08T01:12:03;-14922.56;;;-144.67;100.00
21877;BME280;11103;43.788;23.710;2023-04-08T01:14:31;-14922.56;;;-144.67;100.00
21877;BME280;11103;43.788;23.710;2023-04-08T01:16:59;-14922.56;;;-144.67;100.00
21877;BME280;11103;43.788;23.710;2023-04-08T01:19:34;-14922.56;;;-144.67;100.00
21877;BME280;11103;43.788;23.710;2023-04-08T01:24:42;-14922.56;;;-144.67;100.00
21877;BME280;11103;43.788;23.710;2023-04-08T01:27:09;-14922.56;;;-144.67;100.00
21877;BME280;11103;43.788;23.710;2023-04-08T01:29:36;-14922.56;;;-144.67;100.00
21877;BME280;11103;43.788;23.710;2023-04-08T01:32:03;-14922.56;;;-144.67;100.00
21877;BME280;11103;43.788;23.710;2023-04-08T01:34:30;-14922.56;;;-144.67;100.00
21877;BME280;11103;43.788;23.710;2023-04-08T01:36:57;-14922.56;;;-144.67;100.00
21877;BME280;11103;43.788;23.710;2023-04-08T01:39:23;-14922.56;;;-144.67;100.00
21877;BME280;11103;43.788;23.710;2023-04-08T01:41:52;-14922.56;;;-144.67;100.00
21877;BME280;11103;43.788;23.710;2023-04-08T01:44:19;-14922.56;;;-144.67;100.00
21877;BME280;11103;43.788;23.710;2023-04-08T01:46:46;-14922.56;;;-144.67;100.00
21877;BME280;11103;43.788;23.710;2023-04-08T01:49:13;-14922.56;;;-144.67;100.00
21877;BME280;11103;43.788;23.710;2023-04-08T01:51:40;-14922.56;;;-144.67;100.00
21877;BME280;11103;43.788;23.710;2023-04-08T01:54:05;-14922.56;;;-144.67;100.00
21877;BME280;11103;43.788;23.710;2023-04-08T01:56:35;-14922.56;;;-144.67;100.00
21877;BME280;11103;43.788;23.710;2023-04-08T01:59:06;-14922.56;;;-144.67;100.00
21877;BME280;11103;43.788;23.710;2023-04-08T02:01:34;-14922.56;;;-144.67;100.00
21877;BME280;11103;43.788;23.710;2023-04-08T02:04:00;-14922.56;;;-144.67;100.00
21877;BME280;11103;43.788;23.710;2023-04-08T02:06:27;-14922.56;;;-144.67;100.00
21877;BME280;11103;43.788;23.710;2023-04-08T02:08:55;-14922.56;;;-144.67;100.00
21877;BME280;11103;43.788;23.710;2023-04-08T02:11:20;-14922.56;;;-144.67;100.00
21877;BME280;11103;43.788;23.710;2023-04-08T02:13:46;-14922.56;;;-144.67;100.00
21877;BME280;11103;43.788;23.710;2023-04-08T02:16:52;-14922.56;;;-144.67;100.00
21877;BME280;11103;43.788;23.710;2023-04-08T02:19:27;-14922.56;;;-144.67;100.00
21877;BME280;11103;43.788;23.710;2023-04-08T02:22:04;-14922.56;;;-144.67;100.00
21877;BME280;11103;43.788;23.710;2023-04-08T02:24:33;-14922.56;;;-144.67;100.00
21877;BME280;11103;43.788;23.710;2023-04-08T02:27:02;-14922.56;;;-144.67;100.00
21877;BME280;11103;43.788;23.710;2023-04-08T02:29:30;-14922.56;;;-144.67;100.00
21877;BME280;11103;43.788;23.710;2023-04-08T02:31:56;-14922.56;;;-144.67;100.00
21877;BME280;11103;43.788;23.710;2023-04-08T02:34:23;-14922.56;;;-144.67;100.00
21877;BME280;11103;43.788;23.710;2023-04-08T02:36:50;-14922.56;;;-144.67;100.00
21877;BME280;11103;43.788;23.710;2023-04-08T02:39:16;-14922.56;;;-144.67;100.00
21877;BME280;11103;43.788;23.710;2023-04-08T02:41:41;-14922.56;;;-144.67;100.00
21877;BME280;11103;43.788;23.710;2023-04-08T02:44:08;-14922.56;;;-144.67;100.00
21877;BME280;11103;43.788;23.710;2023-04-08T02:46:33;-14922.56;;;-144.67;100.00
21877;BME280;11103;43.788;23.710;2023-04-08T02:48:59;-14922.56;;;-144.67;100.00
21877;BME280;11103;43.788;23.710;2023-04-08T02:51:25;-14922.56;;;-144.67;100.00
21877;BME280;11103;43.788;23.710;2023-04-08T02:53:50;-14922.56;;;-144.67;100.00
21877;BME280;11103;43.788;23.710;2023-04-08T02:56:15;-14922.56;;;-144.67;100.00
21877;BME280;11103;43.788;23.710;2023-04-08T02:58:41;-14922.56;;;-144.67;100.00
21877;BME280;11103;43.788;23.710;2023-04-08T03:01:07;-14922.56;;;-144.67;100.00
21877;BME280;11103;43.788;23.710;2023-04-08T03:03:33;-14922.56;;;-144.67;100.00
21877;BME280;11103;43.788;23.710;2023-04-08T03:05:58;-14922.56;;;-144.67;100.00
21877;BME280;11103;43.788;23.710;2023-04-08T03:08:23;-14922.56;;;-144.67;100.00
21877;BME280;11103;43.788;23.710;2023-04-08T03:10:50;-14922.56;;;-144.67;100.00
21877;BME280;11103;43.788;23.710;2023-04-08T03:13:15;-14922.56;;;-144.67;100.00
21877;BME280;11103;43.788;23.710;2023-04-08T03:15:41;-14922.56;;;-144.67;100.00
21877;BME280;11103;43.788;23.710;2023-04-08T03:18:07;-14922.56;;;-144.67;100.00
21877;BME280;11103;43.788;23.710;2023-04-08T03:20:32;-14922.56;;;-144.67;100.00
21877;BME280;11103;43.788;23.710;2023-04-08T03:22:58;-14922.56;;;-144.67;100.00
21877;BME280;11103;43.788;23.710;2023-04-08T03:25:23;-14922.56;;;-144.67;100.00
21877;BME280;11103;43.788;23.710;2023-04-08T03:27:49;-14922.56;;;-144.67;100.00
21877;BME280;11103;43.788;23.710;2023-04-08T03:30:15;-14922.56;;;-144.67;100.00
21877;BME280;11103;43.788;23.710;2023-04-08T03:32:40;-14922.56;;;-144.67;100.00
21877;BME280;11103;43.788;23.710;2023-04-08T03:35:06;-14922.56;;;-144.67;100.00
21877;BME280;11103;43.788;23.710;2023-04-08T03:37:32;-14922.56;;;-144.67;100.00
21877;BME280;11103;43.788;23.710;2023-04-08T03:39:57;-14922.56;;;-144.67;100.00
21877;BME280;11103;43.788;23.710;2023-04-08T03:42:22;-14922.56;;;-144.67;100.00
21877;BME280;11103;43.788;23.710;2023-04-08T03:44:48;-14922.56;;;-144.67;100.00
21877;BME280;11103;43.788;23.710;2023-04-08T03:47:14;-14922.56;;;-144.67;100.00
21877;BME280;11103;43.788;23.710;2023-04-08T03:49:39;-14922.56;;;-144.67;100.00
21877;BME280;11103;43.788;23.710;2023-04-08T03:52:04;-14922.56;;;-144.67;100.00
21877;BME280;11103;43.788;23.710;2023-04-08T03:54:30;-14922.56;;;-144.67;100.00
21877;BME280;11103;43.788;23.710;2023-04-08T03:56:55;-14922.56;;;-144.67;100.00
21877;BME280;11103;43.788;23.710;2023-04-08T03:59:21;-14922.56;;;-144.67;100.00
21877;BME280;11103;43.788;23.710;2023-04-08T04:01:47;-14922.56;;;-144.67;100.00
21877;BME280;11103;43.788;23.710;2023-04-08T04:04:12;-14922.56;;;-144.67;100.00
21877;BME280;11103;43.788;23.710;2023-04-08T04:06:38;-14922.56;;;-144.67;100.00
21877;BME280;11103;43.788;23.710;2023-04-08T04:09:03;-14922.56;;;-144.67;100.00
21877;BME280;11103;43.788;23.710;2023-04-08T04:11:29;-14922.56;;;-144.67;100.00
21877;BME280;11103;43.788;23.710;2023-04-08T04:13:54;-14922.56;;;-144.67;100.00
21877;BME280;11103;43.788;23.710;2023-04-08T04:16:20;-14922.56;;;-144.67;100.00
21877;BME280;11103;43.788;23.710;2023-04-08T04:18:45;-14922.56;;;-144.67;100.00
21877;BME280;11103;43.788;23.710;2023-04-08T04:21:10;-14922.56;;;-144.67;100.00
21877;BME280;11103;43.788;23.710;2023-04-08T04:23:36;-14922.56;;;-144.67;100.00
21877;BME280;11103;43.788;23.710;2023-04-08T04:26:07;-14922.56;;;-144.67;100.00
21877;BME280;11103;43.788;23.710;2023-04-08T04:28:32;-14922.56;;;-144.67;100.00
21877;BME280;11103;43.788;23.710;2023-04-08T04:30:57;-14922.56;;;-144.67;100.00
21877;BME280;11103;43.788;23.710;2023-04-08T04:33:23;-14922.56;;;-144.67;100.00
21877;BME280;11103;43.788;23.710;2023-04-08T04:35:48;-14922.56;;;-144.67;100.00
21877;BME280;11103;43.788;23.710;2023-04-08T04:38:14;-14922.56;;;-144.67;100.00
21877;BME280;11103;43.788;23.710;2023-04-08T04:40:40;-14922.56;;;-144.67;100.00
21877;BME280;11103;43.788;23.710;2023-04-08T04:43:05;-14922.56;;;-144.67;100.00
21877;BME280;11103;43.788;23.710;2023-04-08T04:45:31;-14922.56;;;-144.67;100.00
21877;BME280;11103;43.788;23.710;2023-04-08T04:47:56;-14922.56;;;-144.67;100.00
21877;BME280;11103;43.788;23.710;2023-04-08T04:50:22;-14922.56;;;-144.67;100.00
21877;BME280;11103;43.788;23.710;2023-04-08T04:52:47;-14922.56;;;-144.67;100.00
21877;BME280;11103;43.788;23.710;2023-04-08T04:55:13;-14922.56;;;-144.67;100.00
21877;BME280;11103;43.788;23.710;2023-04-08T04:57:40;-14922.56;;;-144.67;100.00
21877;BME280;11103;43.788;23.710;2023-04-08T05:00:06;-14922.56;;;-144.67;100.00
21877;BME280;11103;43.788;23.710;2023-04-08T05:02:32;-14922.56;;;-144.67;100.00
21877;BME280;11103;43.788;23.710;2023-04-08T05:04:58;-14922.56;;;-144.67;100.00
21877;BME280;11103;43.788;23.710;2023-04-08T05:07:23;-14922.56;;;-144.67;100.00
21877;BME280;11103;43.788;23.710;2023-04-08T05:09:49;-14922.56;;;-144.67;100.00
21877;BME280;11103;43.788;23.710;2023-04-08T05:12:14;-14922.56;;;-144.67;100.00
21877;BME280;11103;43.788;23.710;2023-04-08T05:14:40;-14922.56;;;-144.67;100.00
21877;BME280;11103;43.788;23.710;2023-04-08T05:17:06;-14922.56;;;-144.67;100.00
21877;BME280;11103;43.788;23.710;2023-04-08T05:19:31;-14922.56;;;-144.67;100.00
21877;BME280;11103;43.788;23.710;2023-04-08T05:21:57;-14922.56;;;-144.67;100.00
21877;BME280;11103;43.788;23.710;2023-04-08T05:24:22;-14922.56;;;-144.67;100.00
21877;BME280;11103;43.788;23.710;2023-04-08T05:26:48;-14922.56;;;-144.67;100.00
21877;BME280;11103;43.788;23.710;2023-04-08T05:29:16;-14922.56;;;-144.67;100.00
21877;BME280;11103;43.788;23.710;2023-04-08T05:31:43;-14922.56;;;-144.67;100.00
21877;BME280;11103;43.788;23.710;2023-04-08T05:34:09;-14922.56;;;-144.67;100.00
21877;BME280;11103;43.788;23.710;2023-04-08T05:36:35;-14922.56;;;-144.67;100.00
21877;BME280;11103;43.788;23.710;2023-04-08T05:39:00;-14922.56;;;-144.67;100.00
21877;BME280;11103;43.788;23.710;2023-04-08T05:41:26;-14922.56;;;-144.67;100.00
21877;BME280;11103;43.788;23.710;2023-04-08T05:43:51;-14922.56;;;-144.67;100.00
21877;BME280;11103;43.788;23.710;2023-04-08T05:46:17;-14922.56;;;-144.67;100.00
21877;BME280;11103;43.788;23.710;2023-04-08T05:48:42;-14922.56;;;-144.67;100.00
21877;BME280;11103;43.788;23.710;2023-04-08T05:51:12;-14922.56;;;-144.67;100.00
21877;BME280;11103;43.788;23.710;2023-04-08T05:53:38;-14922.56;;;-144.67;100.00
21877;BME280;11103;43.788;23.710;2023-04-08T05:56:04;-14922.56;;;-144.67;100.00
21877;BME280;11103;43.788;23.710;2023-04-08T05:58:29;-14922.56;;;-144.67;100.00
21877;BME280;11103;43.788;23.710;2023-04-08T06:00:54;-14922.56;;;-144.67;100.00
21877;BME280;11103;43.788;23.710;2023-04-08T06:03:20;-14922.56;;;-144.67;100.00
21877;BME280;11103;43.788;23.710;2023-04-08T06:05:46;-14922.56;;;-144.67;100.00
21877;BME280;11103;43.788;23.710;2023-04-08T06:08:11;-14922.56;;;-144.67;100.00
21877;BME280;11103;43.788;23.710;2023-04-08T06:10:36;-14922.56;;;-144.67;100.00
21877;BME280;11103;43.788;23.710;2023-04-08T06:13:02;-14922.56;;;-144.67;100.00
21877;BME280;11103;43.788;23.710;2023-04-08T06:15:27;-14922.56;;;-144.67;100.00
21877;BME280;11103;43.788;23.710;2023-04-08T06:17:53;-14922.56;;;-144.67;100.00
21877;BME280;11103;43.788;23.710;2023-04-08T06:20:18;-14922.56;;;-144.67;100.00
21877;BME280;11103;43.788;23.710;2023-04-08T06:22:43;-14922.56;;;-144.67;100.00
21877;BME280;11103;43.788;23.710;2023-04-08T06:25:09;-14922.56;;;-144.67;100.00
21877;BME280;11103;43.788;23.710;2023-04-08T06:27:34;-14922.56;;;-144.67;100.00
21877;BME280;11103;43.788;23.710;2023-04-08T06:29:59;-14922.56;;;-144.67;100.00
21877;BME280;11103;43.788;23.710;2023-04-08T06:32:25;-14922.56;;;-144.67;100.00
21877;BME280;11103;43.788;23.710;2023-04-08T06:34:51;-14922.56;;;-144.67;100.00
21877;BME280;11103;43.788;23.710;2023-04-08T06:37:16;-14922.56;;;-144.67;100.00
21877;BME280;11103;43.788;23.710;2023-04-08T06:39:42;-14922.56;;;-144.67;100.00
21877;BME280;11103;43.788;23.710;2023-04-08T06:42:08;-14922.56;;;-144.67;100.00
21877;BME280;11103;43.788;23.710;2023-04-08T06:44:33;-14922.56;;;-144.67;100.00
21877;BME280;11103;43.788;23.710;2023-04-08T06:46:59;-14922.56;;;-144.67;100.00
21877;BME280;11103;43.788;23.710;2023-04-08T06:49:24;-14922.56;;;-144.67;100.00
21877;BME280;11103;43.788;23.710;2023-04-08T06:51:51;-14922.56;;;-144.67;100.00
21877;BME280;11103;43.788;23.710;2023-04-08T06:54:17;-14922.56;;;-144.67;100.00
21877;BME280;11103;43.788;23.710;2023-04-08T06:56:42;-14922.56;;;-144.67;100.00
21877;BME280;11103;43.788;23.710;2023-04-08T06:59:07;-14922.56;;;-144.67;100.00
21877;BME280;11103;43.788;23.710;2023-04-08T07:01:33;-14922.56;;;-144.67;100.00
21877;BME280;11103;43.788;23.710;2023-04-08T07:03:58;-14922.56;;;-144.67;100.00
21877;BME280;11103;43.788;23.710;2023-04-08T07:06:26;-14922.56;;;-144.67;100.00
21877;BME280;11103;43.788;23.710;2023-04-08T07:08:51;-14922.56;;;-144.67;100.00
21877;BME280;11103;43.788;23.710;2023-04-08T07:11:17;-14922.56;;;-144.67;100.00
21877;BME280;11103;43.788;23.710;2023-04-08T07:13:42;-14922.56;;;-144.67;100.00
21877;BME280;11103;43.788;23.710;2023-04-08T07:16:07;-14922.56;;;-144.67;100.00
21877;BME280;11103;43.788;23.710;2023-04-08T07:18:33;-14922.56;;;-144.67;100.00
21877;BME280;11103;43.788;23.710;2023-04-08T07:20:58;-14922.56;;;-144.67;100.00
21877;BME280;11103;43.788;23.710;2023-04-08T07:23:25;-14922.56;;;-144.67;100.00
21877;BME280;11103;43.788;23.710;2023-04-08T07:25:51;-14922.56;;;-144.67;100.00
21877;BME280;11103;43.788;23.710;2023-04-08T07:28:16;-14922.56;;;-144.67;100.00
21877;BME280;11103;43.788;23.710;2023-04-08T07:30:42;-14922.56;;;-144.67;100.00
21877;BME280;11103;43.788;23.710;2023-04-08T07:33:07;-14922.56;;;-144.67;100.00
21877;BME280;11103;43.788;23.710;2023-04-08T07:35:33;-14922.56;;;-144.67;100.00
21877;BME280;11103;43.788;23.710;2023-04-08T07:37:58;-14922.56;;;-144.67;100.00
21877;BME280;11103;43.788;23.710;2023-04-08T07:40:24;-14922.56;;;-144.67;100.00
21877;BME280;11103;43.788;23.710;2023-04-08T07:42:49;-14922.56;;;-144.67;100.00
21877;BME280;11103;43.788;23.710;2023-04-08T07:45:15;-14922.56;;;-144.67;100.00
21877;BME280;11103;43.788;23.710;2023-04-08T07:47:40;-14922.56;;;-144.67;100.00
21877;BME280;11103;43.788;23.710;2023-04-08T07:50:07;-14922.56;;;-144.67;100.00
21877;BME280;11103;43.788;23.710;2023-04-08T07:52:33;-14922.56;;;-144.67;100.00
21877;BME280;11103;43.788;23.710;2023-04-08T07:54:59;-14922.56;;;-144.67;100.00
21877;BME280;11103;43.788;23.710;2023-04-08T07:57:25;-14922.56;;;-144.67;100.00
21877;BME280;11103;43.788;23.710;2023-04-08T07:59:51;-14922.56;;;-144.67;100.00
21877;BME280;11103;43.788;23.710;2023-04-08T08:02:16;-14922.56;;;-144.67;100.00
21877;BME280;11103;43.788;23.710;2023-04-08T08:04:42;-14922.56;;;-144.67;100.00
21877;BME280;11103;43.788;23.710;2023-04-08T08:07:07;-14922.56;;;-144.67;100.00
21877;BME280;11103;43.788;23.710;2023-04-08T08:09:32;-14922.56;;;-144.67;100.00
21877;BME280;11103;43.788;23.710;2023-04-08T08:11:58;-14922.56;;;-144.67;100.00
21877;BME280;11103;43.788;23.710;2023-04-08T08:14:23;-14922.56;;;-144.67;100.00
21877;BME280;11103;43.788;23.710;2023-04-08T08:16:50;-14922.56;;;-144.67;100.00
21877;BME280;11103;43.788;23.710;2023-04-08T08:19:16;-14922.56;;;-144.67;100.00
21877;BME280;11103;43.788;23.710;2023-04-08T08:21:42;-14922.56;;;-144.67;100.00
21877;BME280;11103;43.788;23.710;2023-04-08T08:24:07;-14922.56;;;-144.67;100.00
21877;BME280;11103;43.788;23.710;2023-04-08T08:26:36;-14922.56;;;-144.67;100.00
21877;BME280;11103;43.788;23.710;2023-04-08T08:29:01;-14922.56;;;-144.67;100.00
21877;BME280;11103;43.788;23.710;2023-04-08T08:31:27;-14922.56;;;-144.67;100.00
21877;BME280;11103;43.788;23.710;2023-04-08T08:33:52;-14922.56;;;-144.67;100.00
21877;BME280;11103;43.788;23.710;2023-04-08T08:36:17;-14922.56;;;-144.67;100.00
21877;BME280;11103;43.788;23.710;2023-04-08T08:38:43;-14922.56;;;-144.67;100.00
21877;BME280;11103;43.788;23.710;2023-04-08T08:41:08;-14922.56;;;-144.67;100.00
21877;BME280;11103;43.788;23.710;2023-04-08T08:43:34;-14922.56;;;-144.67;100.00
21877;BME280;11103;43.788;23.710;2023-04-08T08:45:59;-14922.56;;;-144.67;100.00
21877;BME280;11103;43.788;23.710;2023-04-08T08:48:25;-14922.56;;;-144.67;100.00
21877;BME280;11103;43.788;23.710;2023-04-08T08:50:51;-14922.56;;;-144.67;100.00
21877;BME280;11103;43.788;23.710;2023-04-08T08:53:16;-14922.56;;;-144.67;100.00
21877;BME280;11103;43.788;23.710;2023-04-08T08:55:44;-14922.56;;;-144.67;100.00
21877;BME280;11103;43.788;23.710;2023-04-08T08:58:09;-14922.56;;;-144.67;100.00
21877;BME280;11103;43.788;23.710;2023-04-08T09:00:35;-14922.56;;;-144.67;100.00
21877;BME280;11103;43.788;23.710;2023-04-08T09:03:24;-14922.56;;;-144.67;100.00
21877;BME280;11103;43.788;23.710;2023-04-08T09:05:58;-14922.56;;;-144.67;100.00
21877;BME280;11103;43.788;23.710;2023-04-08T09:08:31;-14922.56;;;-144.67;100.00
21877;BME280;11103;43.788;23.710;2023-04-08T09:11:14;-14922.56;;;-144.67;100.00
21877;BME280;11103;43.788;23.710;2023-04-08T09:13:41;-14922.56;;;-144.67;100.00
21877;BME280;11103;43.788;23.710;2023-04-08T09:16:08;-14922.56;;;-144.67;100.00
21877;BME280;11103;43.788;23.710;2023-04-08T09:18:38;-14922.56;;;-144.67;100.00
21877;BME280;11103;43.788;23.710;2023-04-08T09:21:05;-14922.56;;;-144.67;100.00
21877;BME280;11103;43.788;23.710;2023-04-08T09:23:48;-14922.56;;;-144.67;100.00
21877;BME280;11103;43.788;23.710;2023-04-08T09:26:15;-14922.56;;;-144.67;100.00
21877;BME280;11103;43.788;23.710;2023-04-08T09:28:42;-14922.56;;;-144.67;100.00
21877;BME280;11103;43.788;23.710;2023-04-08T09:31:28;-14922.56;;;-144.67;100.00
21877;BME280;11103;43.788;23.710;2023-04-08T09:33:56;-14922.56;;;-144.67;100.00
21877;BME280;11103;43.788;23.710;2023-04-08T09:36:22;-14922.56;;;-144.67;100.00
21877;BME280;11103;43.788;23.710;2023-04-08T09:38:47;-14922.56;;;-144.67;100.00
21877;BME280;11103;43.788;23.710;2023-04-08T09:41:15;-14922.56;;;-144.67;100.00
21877;BME280;11103;43.788;23.710;2023-04-08T09:43:43;-14922.56;;;-144.67;100.00
21877;BME280;11103;43.788;23.710;2023-04-08T09:46:15;-14922.56;;;-144.67;100.00
21877;BME280;11103;43.788;23.710;2023-04-08T09:48:47;-14922.56;;;-144.67;100.00
21877;BME280;11103;43.788;23.710;2023-04-08T09:51:15;-14922.56;;;-144.67;100.00
21877;BME280;11103;43.788;23.710;2023-04-08T09:53:46;-14922.56;;;-144.67;100.00
21877;BME280;11103;43.788;23.710;2023-04-08T09:56:13;-14922.56;;;-144.67;100.00
21877;BME280;11103;43.788;23.710;2023-04-08T09:58:58;-14922.56;;;-144.67;100.00
21877;BME280;11103;43.788;23.710;2023-04-08T10:01:46;-14922.56;;;-144.67;100.00
21877;BME280;11103;43.788;23.710;2023-04-08T10:04:15;-14922.56;;;-144.67;100.00
21877;BME280;11103;43.788;23.710;2023-04-08T10:06:43;-14922.56;;;-144.67;100.00
21877;BME280;11103;43.788;23.710;2023-04-08T10:09:09;-14922.56;;;-144.67;100.00
21877;BME280;11103;43.788;23.710;2023-04-08T10:11:35;-14922.56;;;-144.67;100.00
21877;BME280;11103;43.788;23.710;2023-04-08T10:14:02;-14922.56;;;-144.67;100.00
21877;BME280;11103;43.788;23.710;2023-04-08T10:16:27;-14922.56;;;-144.67;100.00
21877;BME280;11103;43.788;23.710;2023-04-08T10:18:54;-14922.56;;;-144.67;100.00
21877;BME280;11103;43.788;23.710;2023-04-08T10:21:40;-14922.56;;;-144.67;100.00
21877;BME280;11103;43.788;23.710;2023-04-08T10:24:12;-14922.56;;;-144.67;100.00
21877;BME280;11103;43.788;23.710;2023-04-08T10:26:42;-14922.56;;;-144.67;100.00
21877;BME280;11103;43.788;23.710;2023-04-08T10:31:47;-14922.56;;;-144.67;100.00
21877;BME280;11103;43.788;23.710;2023-04-08T10:34:19;-14922.56;;;-144.67;100.00
21877;BME280;11103;43.788;23.710;2023-04-08T10:36:46;-14922.56;;;-144.67;100.00
21877;BME280;11103;43.788;23.710;2023-04-08T10:39:15;-14922.56;;;-144.67;100.00
21877;BME280;11103;43.788;23.710;2023-04-08T10:41:45;-14922.56;;;-144.67;100.00
21877;BME280;11103;43.788;23.710;2023-04-08T10:44:21;-14922.56;;;-144.67;100.00
21877;BME280;11103;43.788;23.710;2023-04-08T10:46:48;-14922.56;;;-144.67;100.00
21877;BME280;11103;43.788;23.710;2023-04-08T10:49:14;-14922.56;;;-144.67;100.00
21877;BME280;11103;43.788;23.710;2023-04-08T10:51:42;-14922.56;;;-144.67;100.00
21877;BME280;11103;43.788;23.710;2023-04-08T10:54:13;-14922.56;;;-144.67;100.00
21877;BME280;11103;43.788;23.710;2023-04-08T10:56:48;-14922.56;;;-144.67;100.00
21877;BME280;11103;43.788;23.710;2023-04-08T10:59:30;-14429.81;;;-144.67;100.00
21877;BME280;11103;43.788;23.710;2023-04-08T11:01:57;-11726.28;;;-144.67;100.00
21877;BME280;11103;43.788;23.710;2023-04-08T11:04:23;-14184.13;;;-144.67;100.00
21877;BME280;11103;43.788;23.710;2023-04-08T11:06:49;-11726.28;;;-144.67;100.00
21877;BME280;11103;43.788;23.710;2023-04-08T11:09:15;-7789.84;;;-144.67;100.00
21877;BME280;11103;43.788;23.710;2023-04-08T11:11:42;-5819.84;;;-144.67;100.00
21877;BME280;11103;43.788;23.710;2023-04-08T11:14:08;-5573.53;;;-144.67;100.00
21877;BME280;11103;43.788;23.710;2023-04-08T11:16:34;-9266.56;;;-144.67;100.00
21877;BME280;11103;43.788;23.710;2023-04-08T11:19:02;-7543.66;;;-144.67;100.00
21877;BME280;11103;43.788;23.710;2023-04-08T11:21:30;-4834.41;;;-144.67;100.00
21877;BME280;11103;43.788;23.710;2023-04-08T11:23:56;-4834.41;;;-144.67;100.00
21877;BME280;11103;43.788;23.710;2023-04-08T11:26:22;-3355.69;;;-144.67;100.00
21877;BME280;11103;43.788;23.710;2023-04-08T11:28:48;-4341.59;;;-144.67;100.00
21877;BME280;11103;43.788;23.710;2023-04-08T11:31:16;-5327.19;;;-144.67;100.00
21877;BME280;11103;43.788;23.710;2023-04-08T11:33:48;-2122.91;;;-144.67;100.00
21877;BME280;11103;43.788;23.710;2023-04-08T11:36:17;-2122.91;;;-144.67;100.00
21877;BME280;11103;43.788;23.710;2023-04-08T11:38:43;-7543.66;;;-144.67;100.00
21877;BME280;11103;43.788;23.710;2023-04-08T11:41:09;-7543.66;;;-144.67;100.00
21877;BME280;11103;43.788;23.710;2023-04-08T11:43:36;-1383.03;;;-144.67;100.00
21877;BME280;11103;43.788;23.710;2023-04-08T11:46:11;97.25;;;-144.67;100.00
21877;BME280;11103;43.788;23.710;2023-04-08T11:48:37;-4095.13;;;-144.67;100.00
21877;BME280;11103;43.788;23.710;2023-04-08T11:51:07;-1629.66;;;-144.67;100.00
21877;BME280;11103;43.788;23.710;2023-04-08T11:53:36;-5819.84;;;-144.67;100.00
21877;BME280;11103;43.788;23.710;2023-04-08T11:56:18;-11726.28;;;-144.67;100.00
21877;BME280;11103;43.788;23.710;2023-04-08T11:58:44;-9512.63;;;-144.67;100.00
21877;BME280;11103;43.788;23.710;2023-04-08T12:01:10;-7789.84;;;-144.67;100.00
21877;BME280;11103;43.788;23.710;2023-04-08T12:03:36;-8282.16;;;-144.67;100.00
21877;BME280;11103;43.788;23.710;2023-04-08T12:06:01;-8774.41;;;-144.67;100.00
21877;BME280;11103;43.788;23.710;2023-04-08T12:08:28;-6805.00;;;-144.67;100.00
21877;BME280;11103;43.788;23.710;2023-04-08T12:10:54;-5819.84;;;-144.67;100.00
21877;BME280;11103;43.788;23.710;2023-04-08T12:13:19;-8774.41;;;-144.67;100.00
21877;BME280;11103;43.788;23.710;2023-04-08T12:15:45;-11726.28;;;-144.67;100.00
21877;BME280;11103;43.788;23.710;2023-04-08T12:18:10;-10742.63;;;-144.67;100.00